createdAt,value
2022-08-07T00:01:44.148Z,55.95
2022-08-07T00:04:09.573Z,56.92
2022-08-07T00:06:51.076Z,57.16
2022-08-07T00:09:22.297Z,57.29
2022-08-07T00:11:55.742Z,57.13
2022-08-07T00:14:30.339Z,57.13
2022-08-07T00:16:59.863Z,57.27
2022-08-07T00:19:34.305Z,57.75
2022-08-07T00:22:24.953Z,58.15
2022-08-07T00:25:05.137Z,58.25
2022-08-07T00:27:52.966Z,58.45
2022-08-07T00:30:27.000Z,58.47
2022-08-07T00:32:57.520Z,59.07
2022-08-07T00:35:29.827Z,59.78
2022-08-07T00:38:02.935Z,60.24
2022-08-07T00:40:39.775Z,60.44
2022-08-07T00:43:58.584Z,60.87
2022-08-07T00:45:59.346Z,61.39
2022-08-07T00:48:32.122Z,61.82
2022-08-07T00:51:02.749Z,62.66
2022-08-07T00:53:38.357Z,63.86
2022-08-07T00:56:15.374Z,63.90
2022-08-07T00:58:46.798Z,63.82
2022-08-07T01:01:16.915Z,64.09
2022-08-07T01:03:56.552Z,63.65
2022-08-07T01:06:30.267Z,64.08
2022-08-07T01:09:01.499Z,64.22
2022-08-07T01:12:23.931Z,64.20
2022-08-07T01:14:28.342Z,64.73
2022-08-07T01:16:57.963Z,65.40
2022-08-07T01:19:32.414Z,65.82
2022-08-07T01:22:04.093Z,66.09
2022-08-07T01:24:42.157Z,66.01
2022-08-07T01:27:19.998Z,65.79
2022-08-07T01:29:51.133Z,66.34
2022-08-07T01:32:22.582Z,66.26
2022-08-07T01:34:53.540Z,65.77
2022-08-07T01:37:23.456Z,66.11
2022-08-07T01:40:00.043Z,66.65
2022-08-07T01:42:39.982Z,66.59
2022-08-07T01:45:37.295Z,67.49
2022-08-07T01:48:19.472Z,67.33
2022-08-07T01:51:24.283Z,67.72
2022-08-07T01:54:11.693Z,67.79
2022-08-07T01:56:52.910Z,68.46
2022-08-07T01:59:30.946Z,68.86
2022-08-07T02:02:07.205Z,69.13
2022-08-07T02:04:55.992Z,69.56
2022-08-07T02:07:44.803Z,69.67
2022-08-07T02:10:26.828Z,70.01
2022-08-07T02:13:01.210Z,69.85
2022-08-07T02:15:39.852Z,70.24
2022-08-07T02:18:12.548Z,70.57
2022-08-07T02:20:48.690Z,70.42
2022-08-07T02:23:25.726Z,70.72
2022-08-07T02:26:30.952Z,70.48
2022-08-07T02:28:48.332Z,69.61
2022-08-07T02:31:28.706Z,70.11
2022-08-07T02:34:03.146Z,69.64
2022-08-07T02:36:38.604Z,69.65
2022-08-07T02:39:17.531Z,69.23
2022-08-07T02:42:10.170Z,69.53
2022-08-07T02:44:48.770Z,69.32
2022-08-07T02:47:23.810Z,69.67
2022-08-07T02:49:59.849Z,68.73
2022-08-07T02:52:38.574Z,68.58
2022-08-07T02:55:28.093Z,68.70
2022-08-07T02:58:06.502Z,68.64
2022-08-07T03:00:42.006Z,69.33
2022-08-07T03:03:22.681Z,69.14
2022-08-07T03:05:57.253Z,69.29
2022-08-07T03:08:29.319Z,69.30
2022-08-07T03:11:03.420Z,69.76
2022-08-07T03:13:49.537Z,69.23
2022-08-07T03:16:22.896Z,69.25
2022-08-07T03:18:52.966Z,69.08
2022-08-07T03:21:24.429Z,68.84
2022-08-07T03:24:20.820Z,68.94
2022-08-07T03:26:57.991Z,68.92
2022-08-07T03:29:37.587Z,69.45
2022-08-07T03:32:13.683Z,68.88
2022-08-07T03:34:47.395Z,68.95
2022-08-07T03:37:46.562Z,68.92
2022-08-07T03:40:27.438Z,68.43
2022-08-07T03:43:01.329Z,68.50
2022-08-07T03:45:35.067Z,69.06
2022-08-07T03:48:13.644Z,68.69
2022-08-07T03:50:54.875Z,68.57
2022-08-07T03:54:01.757Z,69.73
2022-08-07T03:56:33.362Z,69.32
2022-08-07T03:59:10.008Z,69.65
2022-08-07T04:01:47.031Z,70.27
2022-08-07T04:04:19.211Z,70.23
2022-08-07T04:06:52.931Z,70.03
2022-08-07T04:09:24.473Z,69.68
2022-08-07T04:12:27.782Z,70.07
2022-08-07T04:14:49.197Z,70.29
2022-08-07T04:17:24.677Z,70.63
2022-08-07T04:20:14.333Z,70.98
2022-08-07T04:22:53.526Z,71.08
2022-08-07T04:25:36.057Z,70.90
2022-08-07T04:28:13.337Z,70.72
2022-08-07T04:30:55.641Z,70.38
2022-08-07T04:33:37.080Z,70.03
2022-08-07T04:36:09.879Z,69.80
2022-08-07T04:38:39.507Z,69.52
2022-08-07T04:41:09.669Z,69.43
2022-08-07T04:44:12.022Z,69.65
2022-08-07T04:47:04.871Z,70.62
2022-08-07T04:50:04.263Z,70.13
2022-08-07T04:52:50.907Z,70.99
2022-08-07T04:58:12.232Z,71.24
2022-08-07T04:58:49.639Z,70.50
2022-08-07T05:01:32.015Z,70.32
2022-08-07T05:04:17.078Z,70.56
2022-08-07T05:07:00.360Z,69.95
2022-08-07T05:09:50.893Z,69.80
2022-08-07T05:12:30.616Z,69.88
2022-08-07T05:15:23.159Z,69.13
2022-08-07T05:18:00.619Z,68.47
2022-08-07T05:20:36.940Z,65.67
2022-08-07T05:23:16.368Z,65.32
2022-08-07T05:26:13.581Z,63.57
2022-08-07T05:28:48.631Z,62.29
2022-08-07T05:31:22.312Z,61.43
2022-08-07T05:34:04.640Z,60.66
2022-08-07T05:36:39.375Z,58.28
2022-08-07T05:40:16.783Z,57.85
2022-08-07T05:42:12.442Z,56.70
2022-08-07T05:44:52.809Z,55.07
2022-08-07T05:47:38.568Z,52.91
2022-08-07T05:50:21.702Z,53.17
2022-08-07T05:52:50.249Z,52.56
2022-08-07T05:55:23.241Z,52.05
2022-08-07T05:58:16.141Z,50.63
2022-08-07T06:00:51.058Z,49.94
2022-08-07T06:03:23.293Z,50.11
2022-08-07T06:05:56.585Z,51.16
2022-08-07T06:08:30.024Z,49.51
2022-08-07T06:11:03.954Z,48.94
2022-08-07T06:14:12.211Z,48.69
2022-08-07T06:16:29.175Z,49.17
2022-08-07T06:19:00.736Z,48.57
2022-08-07T06:22:14.500Z,47.65
2022-08-07T06:24:53.033Z,48.11
2022-08-07T06:27:08.612Z,46.88
2022-08-07T06:29:38.948Z,46.63
2022-08-07T06:32:08.210Z,45.85
2022-08-07T06:34:36.142Z,45.58
2022-08-07T06:37:10.685Z,45.78
2022-08-07T06:40:17.527Z,45.04
2022-08-07T06:42:37.750Z,45.15
2022-08-07T06:45:35.673Z,44.03
2022-08-07T06:48:06.587Z,44.59
2022-08-07T06:50:48.029Z,44.16
2022-08-07T06:54:11.795Z,42.80
2022-08-07T06:56:15.253Z,42.47
2022-08-07T07:00:11.600Z,43.00
2022-08-07T07:01:50.571Z,41.25
2022-08-07T07:04:32.670Z,40.26
2022-08-07T07:07:10.504Z,41.49
2022-08-07T07:09:52.678Z,39.68
2022-08-07T07:12:48.468Z,39.90
2022-08-07T07:15:26.347Z,38.53
2022-08-07T07:18:09.225Z,37.55
2022-08-07T07:20:45.621Z,38.20
2022-08-07T07:24:06.250Z,36.58
2022-08-07T07:26:31.717Z,37.14
2022-08-07T07:29:39.147Z,36.98
2022-08-07T07:32:09.383Z,36.32
2022-08-07T07:34:44.358Z,36.76
2022-08-07T07:37:22.122Z,35.33
2022-08-07T07:40:15.164Z,34.77
2022-08-07T07:42:47.166Z,35.37
2022-08-07T07:46:37.413Z,33.96
2022-08-07T07:48:24.344Z,34.08
2022-08-07T07:51:08.152Z,33.96
2022-08-07T07:53:52.667Z,34.66
2022-08-07T07:56:29.705Z,34.50
2022-08-07T07:59:02.768Z,33.09
2022-08-07T08:02:03.109Z,32.82
2022-08-07T08:04:27.441Z,32.14
2022-08-07T08:06:56.214Z,32.08
2022-08-07T08:09:29.272Z,31.23
2022-08-07T08:12:05.037Z,32.55
2022-08-07T08:14:37.029Z,30.55
2022-08-07T08:17:56.389Z,30.30
2022-08-07T08:20:17.493Z,28.41
2022-08-07T08:23:15.337Z,29.55
2022-08-07T08:26:07.250Z,30.35
2022-08-07T08:28:43.293Z,29.40
2022-08-07T08:31:29.868Z,29.36
2022-08-07T08:34:01.357Z,27.91
2022-08-07T08:36:35.864Z,26.70
2022-08-07T08:39:08.796Z,28.13
2022-08-07T08:41:58.137Z,27.15
2022-08-07T08:44:41.401Z,26.93
2022-08-07T08:47:25.063Z,26.91
2022-08-07T08:50:05.669Z,25.20
2022-08-07T08:52:53.653Z,23.58
2022-08-07T08:55:54.993Z,23.75
2022-08-07T08:58:33.916Z,24.79
2022-08-07T09:01:14.531Z,25.30
2022-08-07T09:03:56.624Z,24.59
2022-08-07T09:06:47.669Z,24.99
2022-08-07T09:09:57.040Z,26.21
2022-08-07T09:12:53.563Z,24.90
2022-08-07T09:16:24.060Z,23.34
2022-08-07T09:19:07.026Z,25.79
2022-08-07T09:22:39.991Z,23.11
2022-08-07T09:25:17.452Z,23.58
2022-08-07T09:28:01.462Z,24.79
2022-08-07T09:30:51.652Z,24.02
2022-08-07T09:33:56.582Z,23.43
2022-08-07T09:36:37.278Z,23.26
2022-08-07T09:39:55.250Z,23.37
2022-08-07T09:42:46.728Z,24.05
2022-08-07T09:47:25.465Z,23.94
2022-08-07T09:48:56.112Z,22.97
2022-08-07T09:52:16.758Z,22.94
2022-08-07T09:54:50.202Z,23.46
2022-08-07T09:58:09.328Z,22.80
2022-08-07T10:01:00.589Z,22.91
2022-08-07T10:04:05.293Z,21.46
2022-08-07T10:07:02.129Z,21.57
2022-08-07T10:10:11.926Z,21.32
2022-08-07T10:13:54.961Z,21.44
2022-08-07T10:16:30.232Z,21.03
2022-08-07T10:19:21.398Z,21.95
2022-08-07T10:22:14.559Z,20.99
2022-08-07T10:24:57.422Z,21.48
2022-08-07T10:27:51.368Z,22.81
2022-08-07T10:30:32.848Z,23.23
2022-08-07T10:34:06.172Z,23.19
2022-08-07T10:36:36.417Z,24.06
2022-08-07T10:39:25.706Z,23.37
2022-08-07T10:42:30.892Z,22.63
2022-08-07T10:45:17.297Z,22.10
2022-08-07T10:48:05.124Z,20.97
2022-08-07T10:50:49.989Z,20.52
2022-08-07T10:53:41.780Z,20.57
2022-08-07T10:56:31.492Z,19.88
2022-08-07T10:59:13.621Z,20.06
2022-08-07T11:02:05.045Z,19.55
2022-08-07T11:05:13.667Z,19.59
2022-08-07T11:08:01.171Z,18.51
2022-08-07T11:10:49.985Z,17.29
2022-08-07T11:14:44.468Z,19.54
2022-08-07T11:16:29.937Z,18.40
2022-08-07T11:19:07.013Z,19.13
2022-08-07T11:21:45.405Z,19.92
2022-08-07T11:24:23.979Z,20.21
2022-08-07T11:27:13.647Z,21.23
2022-08-07T11:30:10.161Z,21.55
2022-08-07T11:32:52.759Z,22.23
2022-08-07T11:35:30.757Z,21.18
2022-08-07T11:38:18.152Z,20.47
2022-08-07T11:40:58.049Z,20.92
2022-08-07T11:43:54.999Z,20.04
2022-08-07T11:46:42.048Z,21.17
2022-08-07T11:50:18.499Z,20.99
2022-08-07T11:52:45.644Z,23.16
2022-08-07T11:56:24.823Z,22.28
2022-08-07T11:58:38.464Z,22.26
2022-08-07T12:02:00.718Z,20.82
2022-08-07T12:04:45.742Z,20.29
2022-08-07T12:07:27.617Z,21.29
2022-08-07T12:10:17.850Z,20.40
2022-08-07T12:13:00.569Z,19.32
2022-08-07T12:15:46.507Z,20.39
2022-08-07T12:18:35.043Z,18.73
2022-08-07T12:21:55.632Z,19.28
2022-08-07T12:24:37.961Z,18.25
2022-08-07T12:27:16.748Z,17.40
2022-08-07T12:29:56.929Z,17.50
2022-08-07T12:32:39.613Z,16.10
2022-08-07T12:35:12.899Z,16.18
2022-08-07T12:38:09.681Z,17.46
2022-08-07T12:40:48.562Z,17.67
2022-08-07T12:44:02.762Z,18.25
2022-08-07T12:46:32.432Z,20.17
2022-08-07T12:49:25.541Z,19.54
2022-08-07T12:52:14.443Z,19.51
2022-08-07T12:55:03.922Z,18.44
2022-08-07T12:58:00.770Z,18.86
2022-08-07T13:00:50.181Z,19.13
2022-08-07T13:04:02.723Z,17.68
2022-08-07T13:07:05.105Z,16.67
2022-08-07T13:10:29.342Z,16.54
2022-08-07T13:13:46.809Z,15.93
2022-08-07T13:16:17.128Z,16.97
2022-08-07T13:19:11.323Z,17.38
2022-08-07T13:22:00.621Z,17.54
2022-08-07T13:24:53.943Z,16.66
2022-08-07T13:28:12.706Z,17.23
2022-08-07T13:30:40.600Z,16.57
2022-08-07T13:34:29.942Z,18.25
2022-08-07T13:36:26.079Z,19.81
2022-08-07T13:39:12.749Z,20.20
2022-08-07T13:41:54.747Z,21.18
2022-08-07T13:44:26.786Z,20.95
2022-08-07T13:47:09.462Z,22.27
2022-08-07T13:50:35.745Z,23.16
2022-08-07T13:52:41.426Z,22.80
2022-08-07T13:55:19.666Z,23.99
2022-08-07T13:58:28.008Z,22.67
2022-08-07T14:01:09.162Z,21.29
2022-08-07T14:04:05.336Z,21.67
2022-08-07T14:06:36.916Z,22.06
2022-08-07T14:10:00.452Z,20.35
2022-08-07T14:12:07.196Z,19.96
2022-08-07T14:14:43.312Z,20.25
2022-08-07T14:18:13.062Z,18.21
2022-08-07T14:20:43.015Z,18.57
2022-08-07T14:23:11.387Z,18.49
2022-08-07T14:25:47.901Z,19.04
2022-08-07T14:28:19.196Z,19.50
2022-08-07T14:30:51.912Z,19.12
2022-08-07T14:33:23.401Z,18.80
2022-08-07T14:35:56.513Z,19.65
2022-08-07T14:38:33.361Z,19.37
2022-08-07T14:41:06.204Z,20.06
2022-08-07T14:43:58.429Z,20.56
2022-08-07T14:46:33.939Z,20.38
2022-08-07T14:52:05.125Z,18.64
2022-08-07T14:54:43.459Z,18.95
2022-08-07T14:57:19.657Z,19.34
2022-08-07T15:00:05.322Z,19.19
2022-08-07T15:02:39.229Z,19.05
2022-08-07T15:05:20.059Z,20.18
2022-08-07T15:07:52.019Z,19.08
2022-08-07T15:10:29.593Z,19.25
2022-08-07T15:13:06.356Z,18.70
2022-08-07T15:15:52.763Z,18.38
2022-08-07T15:18:34.775Z,18.48
2022-08-07T15:25:13.285Z,18.10
2022-08-07T15:27:20.578Z,18.97
2022-08-07T15:30:08.799Z,18.20
2022-08-07T15:33:01.465Z,18.69
2022-08-07T15:36:00.345Z,18.48
2022-08-07T15:38:51.022Z,18.20
2022-08-07T15:44:18.760Z,18.75
2022-08-07T15:46:53.972Z,18.67
2022-08-07T15:50:05.584Z,19.29
2022-08-07T15:52:29.626Z,19.39
2022-08-07T15:55:03.815Z,19.07
2022-08-07T15:57:39.750Z,19.67
2022-08-07T16:00:32.214Z,19.28
2022-08-07T16:03:20.900Z,19.28
2022-08-07T16:05:59.104Z,19.99
2022-08-07T16:08:38.660Z,20.04
2022-08-07T16:11:26.528Z,20.37
2022-08-07T16:14:06.899Z,20.85
2022-08-07T16:16:56.831Z,20.85
2022-08-07T16:19:58.704Z,21.81
2022-08-07T16:22:55.057Z,21.26
2022-08-07T16:25:55.505Z,21.39
2022-08-07T16:30:08.246Z,22.16
2022-08-07T16:32:03.802Z,22.85
2022-08-07T16:34:48.634Z,23.54
2022-08-07T16:38:06.231Z,22.81
2022-08-07T16:41:22.281Z,23.72
2022-08-07T16:44:40.205Z,23.73
2022-08-07T16:47:51.265Z,23.86
2022-08-07T16:50:48.447Z,24.64
2022-08-07T16:54:16.729Z,24.06
2022-08-07T16:58:02.804Z,24.04
2022-08-07T17:00:29.383Z,24.07
2022-08-07T17:03:17.802Z,24.46
2022-08-07T17:06:30.683Z,24.83
2022-08-07T17:09:14.160Z,23.92
2022-08-07T17:12:33.928Z,24.00
2022-08-07T17:15:07.413Z,24.24
2022-08-07T17:17:46.891Z,23.94
2022-08-07T17:20:31.163Z,24.37
2022-08-07T17:23:11.609Z,24.72
2022-08-07T17:26:01.676Z,24.84
2022-08-07T17:28:38.252Z,25.46
2022-08-07T17:31:17.330Z,25.30
2022-08-07T17:34:15.384Z,25.56
2022-08-07T17:36:59.703Z,25.64
2022-08-07T17:39:58.166Z,26.21
2022-08-07T17:42:59.277Z,25.54
2022-08-07T17:45:36.134Z,26.14
2022-08-07T17:48:24.654Z,26.41
2022-08-07T17:51:11.526Z,26.46
2022-08-07T17:54:00.520Z,26.80
2022-08-07T17:56:34.810Z,27.33
2022-08-07T17:59:17.049Z,27.51
2022-08-07T18:02:00.607Z,27.64
2022-08-07T18:04:39.972Z,28.23
2022-08-07T18:07:34.355Z,28.52
2022-08-07T18:10:32.000Z,29.01
2022-08-07T18:13:15.334Z,28.85
2022-08-07T18:15:58.682Z,29.08
2022-08-07T18:21:02.951Z,30.15
2022-08-07T18:21:51.900Z,29.57
2022-08-07T18:24:33.177Z,29.86
2022-08-07T18:27:57.337Z,30.28
2022-08-07T18:30:38.029Z,30.37
2022-08-07T18:33:55.633Z,30.35
2022-08-07T18:36:39.625Z,30.71
2022-08-07T18:40:06.559Z,30.97
2022-08-07T18:42:27.663Z,31.09
2022-08-07T18:45:44.895Z,31.39
2022-08-07T18:48:10.023Z,32.14
2022-08-07T18:51:18.611Z,31.82
2022-08-07T18:54:33.115Z,32.77
2022-08-07T18:57:39.983Z,32.63
2022-08-07T19:00:32.591Z,32.92
2022-08-07T19:03:12.282Z,33.00
2022-08-07T19:06:03.557Z,33.07
2022-08-07T19:08:52.095Z,33.26
2022-08-07T19:11:38.687Z,33.76
2022-08-07T19:14:50.896Z,33.98
2022-08-07T19:18:01.087Z,34.47
2022-08-07T19:20:37.398Z,34.54
2022-08-07T19:23:18.013Z,34.39
2022-08-07T19:26:21.817Z,34.47
2022-08-07T19:30:55.280Z,34.73
2022-08-07T19:32:10.678Z,35.16
2022-08-07T19:34:36.239Z,35.48
2022-08-07T19:37:17.469Z,35.23
2022-08-07T19:39:57.907Z,35.50
2022-08-07T19:42:40.147Z,36.07
2022-08-07T19:46:04.814Z,36.75
2022-08-07T19:48:18.437Z,36.47
2022-08-07T19:50:54.446Z,36.75
2022-08-07T19:54:35.359Z,36.89
2022-08-07T19:58:01.693Z,37.03
2022-08-07T19:59:15.543Z,37.16
2022-08-07T20:01:52.966Z,36.98
2022-08-07T20:04:31.492Z,37.15
2022-08-07T20:07:03.463Z,37.15
2022-08-07T20:10:36.070Z,37.32
2022-08-07T20:12:39.330Z,37.71
2022-08-07T20:15:22.167Z,37.57
2022-08-07T20:18:01.376Z,37.50
2022-08-07T20:20:33.631Z,37.50
2022-08-07T20:23:23.308Z,37.51
2022-08-07T20:26:04.310Z,37.68
2022-08-07T20:28:42.544Z,37.83
2022-08-07T20:31:21.631Z,37.77
2022-08-07T20:34:00.783Z,37.75
2022-08-07T20:36:31.198Z,37.79
2022-08-07T20:39:17.750Z,37.96
2022-08-07T20:41:53.208Z,37.72
2022-08-07T20:44:30.922Z,37.98
2022-08-07T20:47:09.302Z,38.35
2022-08-07T20:49:59.299Z,38.60
2022-08-07T20:52:51.879Z,39.45
2022-08-07T20:55:25.481Z,39.33
2022-08-07T20:58:02.437Z,39.46
2022-08-07T21:00:44.204Z,39.83
2022-08-07T21:03:19.153Z,40.04
2022-08-07T21:06:12.444Z,40.17
2022-08-07T21:09:01.025Z,40.23
2022-08-07T21:11:46.143Z,40.36
2022-08-07T21:14:33.271Z,40.48
2022-08-07T21:18:02.258Z,41.17
2022-08-07T21:20:00.894Z,41.38
2022-08-07T21:22:44.815Z,41.58
2022-08-07T21:25:29.170Z,41.87
2022-08-07T21:28:16.614Z,41.83
2022-08-07T21:30:57.226Z,42.04
2022-08-07T21:33:41.668Z,42.20
2022-08-07T21:36:32.065Z,42.50
2022-08-07T21:39:44.973Z,42.71
2022-08-07T21:42:40.905Z,42.86
2022-08-07T21:46:05.169Z,43.13
2022-08-07T21:48:27.691Z,43.68
2022-08-07T21:51:19.573Z,43.62
2022-08-07T21:54:00.997Z,43.91
2022-08-07T21:56:48.244Z,44.30
2022-08-07T22:00:02.960Z,44.31
2022-08-07T22:02:34.001Z,44.56
2022-08-07T22:05:06.102Z,44.85
2022-08-07T22:07:58.189Z,44.88
2022-08-07T22:10:33.849Z,45.05
2022-08-07T22:13:09.256Z,45.26
2022-08-07T22:16:40.235Z,45.26
2022-08-07T22:18:47.886Z,45.62
2022-08-07T22:21:20.770Z,45.55
2022-08-07T22:23:58.037Z,45.82
2022-08-07T22:26:35.102Z,46.05
2022-08-07T22:29:33.754Z,46.00
2022-08-07T22:32:20.298Z,46.65
2022-08-07T22:34:54.619Z,46.82
2022-08-07T22:38:03.286Z,47.28
2022-08-07T22:40:35.817Z,47.57
2022-08-07T22:43:12.393Z,47.62
2022-08-07T22:46:21.813Z,47.88
2022-08-07T22:49:09.677Z,48.51
2022-08-07T22:52:01.383Z,48.43
2022-08-07T22:55:22.687Z,48.91
2022-08-07T22:58:28.050Z,48.96
2022-08-07T23:01:17.727Z,49.54
2022-08-07T23:04:06.904Z,49.43
2022-08-07T23:06:59.705Z,49.78
2022-08-07T23:10:05.321Z,50.11
2022-08-07T23:13:05.055Z,50.29
2022-08-07T23:16:07.249Z,50.94
2022-08-07T23:19:13.952Z,50.88
2022-08-07T23:21:56.301Z,51.12
2022-08-07T23:24:45.779Z,51.44
2022-08-07T23:28:20.443Z,51.71
2022-08-07T23:31:05.576Z,51.68
2022-08-07T23:34:21.158Z,52.20
2022-08-07T23:37:22.464Z,52.51
2022-08-07T23:40:14.474Z,52.80
2022-08-07T23:43:00.668Z,52.79
2022-08-07T23:46:03.164Z,53.11
2022-08-07T23:49:19.098Z,53.20
2022-08-07T23:53:05.839Z,53.67
2022-08-07T23:54:53.106Z,53.81
2022-08-07T23:57:30.708Z,53.85
